Time;durP1;ratioP1;P1;durP2;ratioP2;P2;SDS_P1;SDS_P2;PMS_P1;PMS_P2;Temp;Humidity;BMP_temperature;BMP_pressure;BME280_temperature;BME280_humidity;BME280_pressure;Samples;Min_cycle;Max_cycle;Signal;HPM_P1;HPM_P2
2023/03/28 00:01:42;;;;;;;6.75;1.80;;;;;;;1.57;100.00;101186.00;6287861;28;20040;-85
2023/03/28 00:04:44;;;;;;;5.65;1.30;;;;;;;1.67;100.00;101195.03;6283833;28;20052;-85
2023/03/28 00:07:46;;;;;;;9.50;2.33;;;;;;;1.61;100.00;101195.22;6287027;28;20060;-85
2023/03/28 00:10:48;;;;;;;8.90;1.67;;;;;;;1.61;100.00;101196.94;6284272;28;20139;-85
2023/03/28 00:13:56;;;;;;;8.93;1.83;;;;;;;1.61;100.00;101202.03;6276212;28;20481;-85
2023/03/28 00:17:00;;;;;;;12.18;2.00;;;;;;;1.58;100.00;101202.13;6295867;28;20135;-84
2023/03/28 00:20:03;;;;;;;7.85;1.33;;;;;;;1.56;100.00;101209.84;6285120;28;20048;-85
2023/03/28 00:23:10;;;;;;;7.35;1.88;;;;;;;1.55;100.00;101212.44;6284940;28;20498;-85
2023/03/28 00:26:12;;;;;;;5.40;1.90;;;;;;;1.56;100.00;101214.09;6285871;28;20457;-85
2023/03/28 00:29:19;;;;;;;12.90;2.10;;;;;;;1.42;100.00;101207.72;6285792;28;20048;-84
2023/03/28 00:32:21;;;;;;;4.72;1.30;;;;;;;1.41;100.00;101211.13;6281791;28;20053;-85
2023/03/28 00:35:24;;;;;;;6.07;1.10;;;;;;;1.51;100.00;101219.34;6285075;28;20051;-85
2023/03/28 00:38:26;;;;;;;6.57;1.77;;;;;;;1.61;100.00;101223.28;6284520;28;20118;-85
2023/03/28 00:41:31;;;;;;;6.80;1.38;;;;;;;1.53;100.00;101224.41;6283882;28;20588;-85
2023/03/28 00:44:54;;;;;;;6.43;1.27;;;;;;;1.51;100.00;101232.94;6282386;28;20045;-85
2023/03/28 00:48:05;;;;;;;7.53;1.30;;;;;;;1.46;100.00;101229.69;6279655;28;20649;-85
2023/03/28 00:51:19;;;;;;;9.27;1.38;;;;;;;1.26;100.00;101237.91;6279966;28;20071;-85
2023/03/28 00:54:23;;;;;;;5.10;2.35;;;;;;;1.16;100.00;101238.22;6265944;28;20048;-85
2023/03/28 00:57:27;;;;;;;8.45;1.08;;;;;;;1.11;100.00;101246.00;6282529;28;20041;-85
2023/03/28 01:00:31;;;;;;;3.50;1.23;;;;;;;1.08;100.00;101258.84;6278769;28;20510;-85
2023/03/28 01:03:34;;;;;;;6.88;1.10;;;;;;;1.09;100.00;101247.75;6284980;28;20041;-85
2023/03/28 01:06:45;;;;;;;5.82;1.40;;;;;;;1.11;100.00;101250.28;6291504;28;20076;-84
2023/03/28 01:09:50;;;;;;;;;;;;;;;1.09;100.00;101257.94;6294139;28;20059;-85
2023/03/28 01:12:55;;;;;;;6.00;1.50;;;;;;;0.91;100.00;101251.66;6280642;28;19934;-84
2023/03/28 01:15:58;;;;;;;5.40;1.83;;;;;;;0.81;100.00;101247.69;6275907;28;20056;-84
2023/03/28 01:19:00;;;;;;;8.23;1.50;;;;;;;0.72;100.00;101261.53;6263447;28;20048;-85
2023/03/28 01:22:32;;;;;;;2.55;1.08;;;;;;;0.67;100.00;101252.31;6285776;28;20040;-85
2023/03/28 01:25:46;;;;;;;8.35;2.30;;;;;;;0.53;100.00;101268.78;6295024;28;20170;-85
2023/03/28 01:29:13;;;;;;;8.48;1.85;;;;;;;0.56;100.00;101268.69;6277518;28;20040;-85
2023/03/28 01:32:51;;;;;;;7.90;1.38;;;;;;;0.58;100.00;101274.59;6295363;28;20033;-84
2023/03/28 01:36:32;;;;;;;5.97;1.92;;;;;;;0.73;100.00;101272.53;6280634;28;20036;-85
2023/03/28 01:40:07;;;;;;;7.38;1.60;;;;;;;0.90;100.00;101282.31;6284982;28;20052;-84
2023/03/28 01:43:23;;;;;;;6.20;1.58;;;;;;;1.14;100.00;101279.06;6275479;28;20056;-85
2023/03/28 01:46:44;;;;;;;5.85;1.50;;;;;;;1.12;100.00;101288.50;6282270;28;20067;-85
2023/03/28 01:50:18;;;;;;;7.82;1.40;;;;;;;1.11;100.00;101284.25;6283098;28;20056;-84
2023/03/28 01:53:41;;;;;;;7.63;1.58;;;;;;;1.11;100.00;101276.59;6280595;28;20122;-85
2023/03/28 01:56:58;;;;;;;8.68;1.50;;;;;;;1.13;100.00;101281.66;6279418;28;20043;-85
2023/03/28 02:00:25;;;;;;;10.68;1.55;;;;;;;1.26;100.00;101291.47;6284438;28;20186;-85
2023/03/28 02:04:01;;;;;;;9.88;2.22;;;;;;;1.18;100.00;101284.94;6287309;28;20465;-84
2023/03/28 02:07:15;;;;;;;12.68;2.20;;;;;;;1.16;100.00;101284.13;6265363;28;20600;-85
2023/03/28 02:10:40;;;;;;;10.93;1.60;;;;;;;1.12;100.00;101285.06;6285563;28;20060;-85
2023/03/28 02:14:14;;;;;;;9.52;1.75;;;;;;;0.99;100.00;101287.97;6229214;28;20061;-84
2023/03/28 02:17:23;;;;;;;7.75;1.52;;;;;;;0.95;100.00;101283.84;6235192;28;20048;-85
2023/03/28 02:20:53;;;;;;;9.50;2.75;;;;;;;0.86;100.00;101281.53;6221503;28;20114;-84
2023/03/28 02:24:14;;;;;;;8.15;2.85;;;;;;;0.92;100.00;101295.81;6227463;28;20241;-84
2023/03/28 02:27:38;;;;;;;9.73;1.70;;;;;;;0.91;100.00;101286.50;6209504;28;20046;-84
2023/03/28 02:31:06;;;;;;;7.00;1.50;;;;;;;0.80;100.00;101295.28;6218869;28;20144;-84
2023/03/28 02:34:09;;;;;;;6.88;1.38;;;;;;;0.71;100.00;101290.41;6212504;28;20069;-85
2023/03/28 02:37:34;;;;;;;8.20;2.03;;;;;;;0.65;100.00;101288.03;6206547;28;20050;-84
2023/03/28 02:41:04;;;;;;;7.63;1.60;;;;;;;0.71;100.00;101289.56;6228526;28;20238;-85
2023/03/28 02:44:39;;;;;;;7.88;1.58;;;;;;;0.80;100.00;101294.44;6212267;28;20053;-85
2023/03/28 02:48:05;;;;;;;10.32;2.28;;;;;;;0.87;100.00;101306.16;6208846;28;20384;-85
2023/03/28 02:51:39;;;;;;;7.22;1.38;;;;;;;1.00;100.00;101301.56;6255469;28;20494;-84
2023/03/28 02:54:46;;;;;;;8.35;1.50;;;;;;;0.95;100.00;101298.31;6255964;28;20077;-85
2023/03/28 02:58:33;;;;;;;5.38;1.38;;;;;;;0.99;100.00;101297.31;6287453;28;20177;-85
2023/03/28 03:01:35;;;;;;;6.43;1.70;;;;;;;0.83;100.00;101302.84;6229693;28;20561;-84
2023/03/28 03:04:37;;;;;;;8.60;1.42;;;;;;;0.74;100.00;101300.50;6213215;28;20049;-85
2023/03/28 03:07:40;;;;;;;6.50;2.13;;;;;;;0.70;100.00;101304.03;6213615;28;20045;-84
2023/03/28 03:10:42;;;;;;;9.52;1.83;;;;;;;0.80;100.00;101304.63;6235317;28;20048;-84
2023/03/28 03:13:44;;;;;;;13.40;2.03;;;;;;;0.87;100.00;101306.16;6215742;28;20060;-85
2023/03/28 03:16:47;;;;;;;7.80;1.65;;;;;;;0.98;100.00;101308.41;6225251;28;20092;-84
2023/03/28 03:19:51;;;;;;;7.50;1.67;;;;;;;1.02;100.00;101315.94;6244511;28;20053;-85
2023/03/28 03:22:54;;;;;;;14.65;1.92;;;;;;;1.17;100.00;101329.13;6242565;28;20041;-85
2023/03/28 03:25:56;;;;;;;17.38;2.03;;;;;;;1.10;100.00;101323.38;6218372;28;20079;-84
2023/03/28 03:29:14;;;;;;;4.20;1.40;;;;;;;1.05;100.00;101320.94;6218933;28;20641;-84
2023/03/28 03:32:16;;;;;;;13.00;1.65;;;;;;;0.98;100.00;101331.34;6233008;28;20069;-85
2023/03/28 03:35:32;;;;;;;11.00;3.40;;;;;;;0.82;100.00;101320.69;6219348;28;20513;-85
2023/03/28 03:38:38;;;;;;;6.38;1.55;;;;;;;0.68;100.00;101327.88;6272340;28;20165;-85
2023/03/28 03:41:40;;;;;;;9.98;2.13;;;;;;;0.63;100.00;101328.81;6287637;28;20059;-85
2023/03/28 03:44:43;;;;;;;9.50;1.88;;;;;;;0.55;100.00;101330.72;6288266;28;20055;-85
2023/03/28 03:47:45;;;;;;;10.80;2.20;;;;;;;0.55;100.00;101330.72;6287256;28;20057;-85
2023/03/28 03:50:47;;;;;;;7.05;1.42;;;;;;;0.42;100.00;101326.78;6299450;28;20040;-85
2023/03/28 03:53:50;;;;;;;11.05;2.08;;;;;;;0.51;100.00;101334.22;6290897;28;20040;-85
2023/03/28 03:56:55;;;;;;;5.50;1.50;;;;;;;0.45;100.00;101333.50;6273956;28;20474;-84
2023/03/28 03:59:57;;;;;;;10.20;1.90;;;;;;;0.43;100.00;101331.84;6289050;28;20454;-85
2023/03/28 04:03:00;;;;;;;7.97;1.98;;;;;;;0.45;100.00;101330.97;6287072;28;20049;-85
2023/03/28 04:06:04;;;;;;;8.23;1.88;;;;;;;0.42;100.00;101339.50;6286640;28;20049;-84
2023/03/28 04:09:07;;;;;;;7.63;1.70;;;;;;;0.27;100.00;101334.78;6294678;28;20186;-85
2023/03/28 04:12:30;;;;;;;8.13;2.13;;;;;;;0.17;100.00;101337.56;6289297;28;20087;-85
2023/03/28 04:15:32;;;;;;;8.63;1.60;;;;;;;0.15;100.00;101333.34;6270064;28;20546;-85
2023/03/28 04:18:52;;;;;;;11.90;2.42;;;;;;;0.13;100.00;101335.94;6288015;28;20052;-85
2023/03/28 04:21:55;;;;;;;7.43;1.73;;;;;;;0.12;100.00;101347.00;6285572;28;20082;-85
2023/03/28 04:25:00;;;;;;;8.10;1.95;;;;;;;0.17;100.00;101347.75;6285659;28;20040;-84
2023/03/28 04:28:15;;;;;;;12.45;2.13;;;;;;;0.13;100.00;101346.13;6286129;28;20059;-84
2023/03/28 04:31:34;;;;;;;6.82;1.73;;;;;;;0.06;100.00;101353.94;6286040;28;20093;-85
2023/03/28 04:35:09;;;;;;;11.77;3.10;;;;;;;0.14;100.00;101359.69;6286250;28;20391;-84
2023/03/28 04:38:10;;;;;;;8.27;2.03;;;;;;;0.16;100.00;101363.03;6285834;28;20426;-85
2023/03/28 04:41:32;;;;;;;8.93;2.08;;;;;;;0.32;100.00;101358.44;6285524;28;20048;-85
2023/03/28 04:45:00;;;;;;;6.05;1.65;;;;;;;0.32;100.00;101358.44;6258119;28;20175;-85
2023/03/28 04:48:02;;;;;;;6.45;1.50;;;;;;;0.33;100.00;101357.56;6242217;28;20660;-85
2023/03/28 04:51:04;;;;;;;6.10;1.77;;;;;;;0.36;100.00;101365.97;6260129;28;20561;-85
2023/03/28 04:54:06;;;;;;;8.43;1.80;;;;;;;0.25;100.00;101369.63;6259950;28;20068;-85
2023/03/28 04:57:20;;;;;;;5.88;1.55;;;;;;;0.17;100.00;101368.13;6258649;28;20686;-85
2023/03/28 05:00:26;;;;;;;6.05;1.38;;;;;;;0.17;100.00;101379.97;6241783;28;20071;-84
2023/03/28 05:03:37;;;;;;;8.20;1.50;;;;;;;0.16;100.00;101391.88;6258342;28;20037;-85
2023/03/28 05:06:39;;;;;;;10.50;1.90;;;;;;;0.16;100.00;101389.34;6267551;28;20044;-84
2023/03/28 05:09:47;;;;;;;9.77;1.85;;;;;;;0.25;100.00;101397.63;6254608;28;20041;-84
2023/03/28 05:12:49;;;;;;;8.77;2.20;;;;;;;0.36;100.00;101410.97;6260246;28;20045;-85
2023/03/28 05:15:51;;;;;;;12.63;2.05;;;;;;;0.40;100.00;101404.94;6264233;28;20097;-85
2023/03/28 05:19:17;;;;;;;9.45;2.05;;;;;;;0.44;100.00;101401.44;6263223;28;20121;-85
2023/03/28 05:22:38;;;;;;;7.70;1.80;;;;;;;0.43;100.00;101408.25;6281223;28;20163;-85
2023/03/28 05:25:41;;;;;;;10.00;2.20;;;;;;;0.43;100.00;101407.41;6282000;28;20101;-84
2023/03/28 05:28:44;;;;;;;6.15;1.50;;;;;;;0.37;100.00;101412.63;6284810;28;20226;-85
2023/03/28 05:31:46;;;;;;;4.68;1.67;;;;;;;0.37;100.00;101418.59;6288584;28;20088;-85
2023/03/28 05:34:56;;;;;;;7.27;1.83;;;;;;;0.41;100.00;101414.25;6290588;28;20395;-84
2023/03/28 05:38:03;;;;;;;12.18;2.85;;;;;;;0.25;100.00;101426.50;6294999;28;20287;-85
2023/03/28 05:41:05;;;;;;;4.97;1.38;;;;;;;0.15;100.00;101430.94;6286075;28;20044;-84
2023/03/28 05:44:07;;;;;;;9.77;1.70;;;;;;;0.20;100.00;101426.59;6280246;28;20060;-84
2023/03/28 05:47:29;;;;;;;7.25;1.65;;;;;;;0.38;100.00;101434.69;6283611;28;20060;-84
2023/03/28 05:50:31;;;;;;;6.15;1.83;;;;;;;0.40;100.00;101436.34;6283868;28;20070;-85
2023/03/28 05:53:38;;;;;;;9.35;1.45;;;;;;;0.43;100.00;101441.38;6284196;28;20525;-84
2023/03/28 05:56:43;;;;;;;14.88;2.53;;;;;;;0.48;100.00;101445.53;6286204;28;20045;-84
2023/03/28 05:59:45;;;;;;;8.90;2.67;;;;;;;0.57;100.00;101450.41;6284227;28;20079;-85
2023/03/28 06:02:50;;;;;;;6.80;1.50;;;;;;;0.60;100.00;101448.63;6282347;28;20484;-85
2023/03/28 06:05:56;;;;;;;10.13;2.15;;;;;;;0.74;100.00;101450.84;6283978;28;20067;-85
2023/03/28 06:09:01;;;;;;;14.45;2.50;;;;;;;0.89;100.00;101459.00;6268072;28;20040;-85
2023/03/28 06:12:12;;;;;;;;;;;;;;;1.03;100.00;101456.97;6283311;28;20056;-84
2023/03/28 06:15:21;;;;;;;7.53;2.53;;;;;;;1.17;100.00;101462.59;6281036;28;19931;-84
2023/03/28 06:18:24;;;;;;;9.13;2.03;;;;;;;1.31;100.00;101458.84;6281061;28;20075;-84
2023/03/28 06:21:27;;;;;;;9.43;2.22;;;;;;;1.38;100.00;101471.41;6267680;28;20044;-85
2023/03/28 06:24:29;;;;;;;12.95;3.20;;;;;;;1.57;100.00;101473.50;6259243;28;20426;-85
2023/03/28 06:27:32;;;;;;;8.95;1.95;;;;;;;1.68;100.00;101463.81;6285248;28;20147;-85
2023/03/28 06:30:37;;;;;;;8.73;1.58;;;;;;;1.86;100.00;101476.09;6292837;28;20049;-84
2023/03/28 06:33:41;;;;;;;7.68;1.80;;;;;;;2.08;100.00;101470.38;6282693;28;20059;-85
2023/03/28 06:36:44;;;;;;;7.85;2.08;;;;;;;2.29;100.00;101477.44;6267115;28;20101;-84
2023/03/28 06:39:49;;;;;;;9.50;1.48;;;;;;;2.45;100.00;101482.09;6284115;28;20051;-84
2023/03/28 06:42:52;;;;;;;8.25;2.53;;;;;;;2.40;100.00;101481.38;6289325;28;20330;-84
2023/03/28 06:46:02;;;;;;;7.10;1.73;;;;;;;2.45;100.00;101487.19;6285328;28;20090;-84
2023/03/28 06:49:06;;;;;;;12.43;1.80;;;;;;;2.43;100.00;101481.28;6298727;28;20051;-84
2023/03/28 06:52:27;;;;;;;11.48;2.20;;;;;;;2.48;100.00;101497.31;6288610;28;20495;-84
2023/03/28 06:55:30;;;;;;;9.93;1.60;;;;;;;2.55;100.00;101509.88;6288781;28;20143;-85
2023/03/28 06:58:32;;;;;;;10.05;2.42;;;;;;;2.55;100.00;101514.16;6287228;28;20044;-84
2023/03/28 07:01:40;;;;;;;6.07;1.63;;;;;;;2.51;100.00;101507.44;6285057;28;20048;-84
2023/03/28 07:04:45;;;;;;;9.05;2.08;;;;;;;2.59;100.00;101510.63;6287548;28;20461;-84
2023/03/28 07:07:48;;;;;;;6.78;1.92;;;;;;;2.46;100.00;101511.84;6288142;28;20592;-84
2023/03/28 07:10:49;;;;;;;13.07;1.60;;;;;;;2.46;100.00;101510.16;6305446;28;20040;-85
2023/03/28 07:13:52;;;;;;;4.88;1.35;;;;;;;2.62;100.00;101510.53;6290300;28;20056;-84
2023/03/28 07:16:54;;;;;;;7.70;1.60;;;;;;;2.79;100.00;101512.59;6287767;28;20071;-84
2023/03/28 07:19:56;;;;;;;9.13;1.48;;;;;;;2.89;100.00;101524.19;6289744;28;20036;-84
2023/03/28 07:22:58;;;;;;;5.93;1.65;;;;;;;2.94;100.00;101516.38;6287829;28;20178;-84
2023/03/28 07:26:01;;;;;;;9.77;1.90;;;;;;;3.02;100.00;101519.53;6287871;28;20051;-84
2023/03/28 07:29:02;;;;;;;9.02;2.15;;;;;;;3.18;100.00;101523.28;6289345;28;20183;-84
2023/03/28 07:32:04;;;;;;;13.77;2.17;;;;;;;3.28;100.00;101530.66;6287966;28;20044;-84
2023/03/28 07:35:07;;;;;;;7.95;2.00;;;;;;;3.35;100.00;101529.56;6270246;28;20114;-84
2023/03/28 07:38:18;;;;;;;7.28;2.03;;;;;;;3.33;100.00;101532.19;6287855;28;20044;-84
2023/03/28 07:41:25;;;;;;;5.93;1.38;;;;;;;3.37;100.00;101535.47;6288037;28;20510;-84
2023/03/28 07:44:27;;;;;;;6.95;1.70;;;;;;;3.40;100.00;101532.81;6285655;28;20051;-84
2023/03/28 07:47:29;;;;;;;6.75;1.42;;;;;;;3.54;100.00;101538.31;6285826;28;20056;-84
2023/03/28 07:50:31;;;;;;;6.43;1.92;;;;;;;3.65;100.00;101543.94;6287437;28;20571;-84
2023/03/28 07:53:34;;;;;;;9.93;1.90;;;;;;;3.76;100.00;101543.56;6273452;28;20045;-84
2023/03/28 07:56:36;;;;;;;9.40;1.95;;;;;;;3.94;100.00;101551.50;6282951;28;20086;-84
2023/03/28 07:59:56;;;;;;;6.78;1.77;;;;;;;3.86;100.00;101552.59;6286130;28;20036;-84
2023/03/28 08:03:00;;;;;;;7.82;1.88;;;;;;;4.00;100.00;101554.69;6286042;28;20040;-84
2023/03/28 08:06:04;;;;;;;9.68;2.15;;;;;;;4.02;100.00;101555.44;6286866;28;20059;-84
2023/03/28 08:09:21;;;;;;;10.32;1.83;;;;;;;4.03;100.00;101562.25;6279836;28;20095;-84
2023/03/28 08:12:34;;;;;;;8.60;2.15;;;;;;;4.16;100.00;101570.34;6280812;28;20048;-84
2023/03/28 08:15:36;;;;;;;6.10;2.35;;;;;;;4.13;100.00;101562.78;6288900;28;20040;-84
2023/03/28 08:18:38;;;;;;;8.32;1.73;;;;;;;4.24;100.00;101564.94;6288593;28;20045;-84
2023/03/28 08:21:40;;;;;;;12.40;2.08;;;;;;;4.39;100.00;101564.38;6290301;28;20040;-85
2023/03/28 08:24:42;;;;;;;7.03;2.08;;;;;;;4.56;100.00;101556.09;6276144;28;20139;-84
2023/03/28 08:27:47;;;;;;;7.13;2.28;;;;;;;4.62;100.00;101558.44;6292320;28;20044;-84
2023/03/28 08:30:49;;;;;;;9.77;2.00;;;;;;;4.57;100.00;101556.91;6290705;28;20040;-84
2023/03/28 08:33:53;;;;;;;5.93;1.52;;;;;;;4.56;100.00;101568.91;6290940;28;20449;-83
2023/03/28 08:36:59;;;;;;;4.82;1.38;;;;;;;4.45;100.00;101561.63;6286761;28;20537;-83
2023/03/28 08:40:07;;;;;;;7.53;1.65;;;;;;;4.44;100.00;101565.06;6285419;28;20414;-83
2023/03/28 08:43:34;;;;;;;5.95;1.48;;;;;;;4.56;100.00;101561.22;6287486;28;20040;-83
2023/03/28 08:46:40;;;;;;;11.35;1.60;;;;;;;4.64;100.00;101568.59;6284454;28;20040;-83
2023/03/28 08:49:46;;;;;;;9.70;2.17;;;;;;;4.79;100.00;101567.19;6281595;28;20074;-83
2023/03/28 08:52:50;;;;;;;7.55;1.67;;;;;;;4.97;100.00;101571.66;6285403;28;20486;-83
2023/03/28 08:55:55;;;;;;;4.40;1.50;;;;;;;5.25;100.00;101585.97;6286146;28;20094;-83
2023/03/28 08:59:11;;;;;;;11.63;2.08;;;;;;;5.31;100.00;101581.41;6287472;28;20089;-83
2023/03/28 09:02:25;;;;;;;11.35;2.13;;;;;;;5.42;100.00;101577.59;6283894;28;20471;-83
2023/03/28 09:05:39;;;;;;;9.98;1.88;;;;;;;5.41;100.00;101576.72;6285596;28;20045;-83
2023/03/28 09:09:09;;;;;;;7.30;1.75;;;;;;;5.41;100.00;101589.56;6290357;28;20028;-83
2023/03/28 09:12:45;;;;;;;9.63;1.60;;;;;;;5.68;100.00;101590.19;6289813;28;20053;-83
2023/03/28 09:15:58;;;;;;;8.82;2.38;;;;;;;5.86;100.00;101583.44;6282002;28;20040;-83
2023/03/28 09:19:15;;;;;;;6.32;2.03;;;;;;;5.86;100.00;101586.00;6281723;28;20044;-83
2023/03/28 09:22:33;;;;;;;9.82;2.58;;;;;;;6.10;100.00;101597.00;6266104;28;20455;-84
2023/03/28 09:26:06;;;;;;;9.68;1.65;;;;;;;6.12;100.00;101595.22;6283858;28;20083;-83
2023/03/28 09:29:22;;;;;;;9.02;2.20;;;;;;;6.25;100.00;101590.38;6297935;28;20390;-84
2023/03/28 09:32:37;;;;;;;5.82;1.73;;;;;;;6.21;100.00;101593.97;6298277;28;20064;-84
2023/03/28 09:35:40;;;;;;;10.52;2.00;;;;;;;6.21;100.00;101599.97;6298687;28;20044;-84
2023/03/28 09:38:51;;;;;;;8.75;1.63;;;;;;;6.27;100.00;101591.16;6283278;28;20052;-84
2023/03/28 09:42:18;;;;;;;6.90;1.80;;;;;;;6.25;100.00;101586.06;6283041;28;20047;-82
2023/03/28 09:45:35;;;;;;;11.90;2.58;;;;;;;5.99;100.00;101586.38;6277851;28;20064;-83
2023/03/28 09:48:56;;;;;;;9.30;1.92;;;;;;;5.70;100.00;101580.69;6282146;28;20048;-83
2023/03/28 09:52:20;;;;;;;4.28;1.65;;;;;;;5.54;100.00;101592.47;6280435;28;20048;-83
2023/03/28 09:55:24;;;;;;;5.45;1.88;;;;;;;5.83;100.00;101584.41;6284154;28;20544;-84
2023/03/28 09:58:27;;;;;;;8.90;2.05;;;;;;;6.11;100.00;101588.41;6283563;28;20075;-84
2023/03/28 10:01:54;;;;;;;7.35;1.67;;;;;;;6.09;100.00;101585.06;6285602;28;20586;-83
2023/03/28 10:04:56;;;;;;;7.45;2.25;;;;;;;6.35;100.00;101591.63;6283656;28;20071;-84
2023/03/28 10:08:24;;;;;;;6.30;1.55;;;;;;;6.67;100.00;101586.78;6284829;28;20398;-84
2023/03/28 10:11:59;;;;;;;5.85;1.35;;;;;;;6.50;100.00;101586.72;6284515;28;20048;-83
2023/03/28 10:15:32;;;;;;;10.30;1.92;;;;;;;6.53;100.00;101594.28;6293949;28;20059;-83
2023/03/28 10:18:53;;;;;;;8.30;1.95;;;;;;;6.49;100.00;101580.75;6283845;28;20040;-83
2023/03/28 10:22:25;;;;;;;9.52;1.60;;;;;;;6.58;100.00;101584.63;6285986;28;20113;-84
2023/03/28 10:25:29;;;;;;;;;;;;;;;6.55;100.00;101583.03;6285951;28;20057;-83
2023/03/28 10:28:35;;;;;;;9.55;1.83;;;;;;;6.57;100.00;101588.13;6288939;28;19928;-84
2023/03/28 10:31:38;;;;;;;6.00;1.58;;;;;;;6.60;100.00;101583.66;6283137;28;20032;-84
2023/03/28 10:35:01;;;;;;;8.60;1.55;;;;;;;6.89;100.00;101596.94;6285724;28;20052;-83
2023/03/28 10:38:22;;;;;;;6.63;1.95;;;;;;;7.07;100.00;101587.53;6288290;28;20109;-84
2023/03/28 10:42:00;;;;;;;7.85;2.88;;;;;;;6.99;100.00;101590.47;6296170;28;20052;-84
2023/03/28 10:45:44;;;;;;;7.00;1.52;;;;;;;6.55;100.00;101583.03;6229340;28;20061;-85
2023/03/28 10:48:55;;;;;;;6.47;1.23;;;;;;;6.64;100.00;101579.22;6204874;28;20558;-86
2023/03/28 10:51:58;;;;;;;6.07;1.17;;;;;;;6.90;100.00;101586.56;6185110;28;20296;-85
2023/03/28 10:55:27;;;;;;;6.95;1.42;;;;;;;7.10;100.00;101583.06;6206982;28;20100;-86
2023/03/28 10:59:13;;;;;;;8.23;2.00;;;;;;;7.19;100.00;101589.50;6223943;28;20666;-86
2023/03/28 11:02:30;;;;;;;7.80;2.00;;;;;;;7.18;100.00;101582.72;6218162;28;20809;-85
2023/03/28 11:05:54;;;;;;;10.10;1.63;;;;;;;7.05;100.00;101590.16;6217874;28;20049;-86
2023/03/28 11:09:21;;;;;;;8.63;1.65;;;;;;;6.97;100.00;101589.69;6220063;28;20042;-83
2023/03/28 11:13:13;;;;;;;5.68;1.45;;;;;;;7.22;100.00;101580.81;6226391;28;20566;-84
2023/03/28 11:16:34;;;;;;;6.53;1.60;;;;;;;7.62;100.00;101571.13;6234973;28;20524;-83
2023/03/28 11:20:25;;;;;;;5.03;1.35;;;;;;;7.86;100.00;101577.63;6289720;28;20052;-84
2023/03/28 11:23:43;;;;;;;6.15;1.52;;;;;;;7.80;100.00;101569.38;6286391;28;20052;-84
2023/03/28 11:27:38;;;;;;;8.82;1.60;;;;;;;7.64;100.00;101569.31;6288383;28;20859;-83
2023/03/28 11:30:51;;;;;;;2.90;1.00;;;;;;;7.26;100.00;101575.44;6284809;28;20060;-83
2023/03/28 11:34:04;;;;;;;4.80;1.35;;;;;;;7.02;100.00;101567.13;6283500;28;20524;-83
2023/03/28 11:37:29;;;;;;;1.75;0.70;;;;;;;7.07;100.00;101570.31;6304618;28;20048;-83
2023/03/28 11:40:53;;;;;;;6.40;1.48;;;;;;;7.04;100.00;101560.19;6268794;28;20055;-84
2023/03/28 11:44:15;;;;;;;4.97;1.33;;;;;;;7.39;100.00;101556.81;6278353;28;20063;-84
2023/03/28 11:47:20;;;;;;;;;;;;;;;7.53;100.00;101542.34;6288048;28;20102;-84
2023/03/28 11:51:07;;;;;;;4.05;1.10;;;;;;;7.85;100.00;101541.63;6288839;28;19928;-84
2023/03/28 11:54:45;;;;;;;3.35;1.30;;;;;;;7.96;100.00;101542.75;6285895;28;20059;-84
2023/03/28 11:58:24;;;;;;;4.65;1.45;;;;;;;8.14;100.00;101538.38;6286452;28;20102;-84
2023/03/28 12:01:33;;;;;;;9.10;1.35;;;;;;;8.16;100.00;101540.88;6288352;28;20049;-84
2023/03/28 12:05:01;;;;;;;5.25;1.55;;;;;;;8.66;100.00;101529.63;6312048;28;20052;-84
2023/03/28 12:08:11;;;;;;;3.67;1.13;;;;;;;9.15;100.00;101528.63;6288729;28;20504;-84
2023/03/28 12:11:24;;;;;;;5.82;1.25;;;;;;;9.17;99.33;101535.38;6289015;28;20033;-84
2023/03/28 12:14:44;;;;;;;5.03;1.30;;;;;;;8.77;96.93;101541.91;6286368;28;20055;-84
2023/03/28 12:18:11;;;;;;;5.18;1.30;;;;;;;8.56;98.30;101533.63;6289656;28;20481;-84
2023/03/28 12:21:20;;;;;;;3.30;1.20;;;;;;;8.34;100.00;101531.31;6289086;28;20352;-84
2023/03/28 12:24:44;;;;;;;8.03;1.63;;;;;;;8.56;100.00;101525.88;6285789;28;20446;-84
2023/03/28 12:28:03;;;;;;;4.72;1.25;;;;;;;8.94;100.00;101517.75;6279983;28;20036;-84
2023/03/28 12:31:10;;;;;;;5.65;1.67;;;;;;;8.93;100.00;101514.34;6289745;28;20036;-84
2023/03/28 12:34:30;;;;;;;7.10;2.20;;;;;;;8.52;100.00;101514.03;6278216;28;20418;-84
2023/03/28 12:38:23;;;;;;;6.13;1.27;;;;;;;7.97;100.00;101508.31;6234921;28;20139;-84
2023/03/28 12:41:41;;;;;;;3.57;1.37;;;;;;;8.09;100.00;101509.41;6218091;28;20064;-84
2023/03/28 12:44:47;;;;;;;4.38;1.25;;;;;;;8.09;100.00;101504.25;6219919;28;20680;-84
2023/03/28 12:47:54;;;;;;;3.65;1.10;;;;;;;8.37;100.00;101501.06;6229031;28;20049;-84
2023/03/28 12:51:05;;;;;;;5.70;1.02;;;;;;;8.53;100.00;101495.09;6235575;28;20403;-84
2023/03/28 12:54:13;;;;;;;3.25;1.30;;;;;;;8.60;100.00;101493.84;6233658;28;20470;-84
2023/03/28 12:57:44;;;;;;;3.40;1.55;;;;;;;8.61;100.00;101493.72;6221766;28;20120;-84
2023/03/28 13:01:26;;;;;;;6.50;1.35;;;;;;;8.59;100.00;101494.72;6224159;28;20400;-84
2023/03/28 13:05:08;;;;;;;3.60;1.25;;;;;;;8.71;100.00;101495.81;6219093;28;20045;-84
2023/03/28 13:08:26;;;;;;;5.93;1.30;;;;;;;8.39;100.00;101494.06;6233128;28;20053;-83
2023/03/28 13:11:47;;;;;;;3.72;1.35;;;;;;;8.41;100.00;101484.50;6223728;28;20041;-84
2023/03/28 13:15:15;;;;;;;4.55;1.55;;;;;;;8.48;100.00;101479.03;6282577;28;20049;-84
2023/03/28 13:18:19;;;;;;;4.88;1.40;;;;;;;8.38;100.00;101479.47;6276949;28;20045;-84
2023/03/28 13:21:42;;;;;;;8.85;2.65;;;;;;;8.21;97.91;101477.00;6288759;28;20032;-84
2023/03/28 13:24:44;;;;;;;3.78;1.70;;;;;;;8.09;99.95;101475.88;6286277;28;20044;-84
2023/03/28 13:27:51;;;;;;;5.10;1.38;;;;;;;8.33;100.00;101467.75;6273534;28;20040;-84
2023/03/28 13:31:07;;;;;;;7.05;1.30;;;;;;;8.72;96.82;101469.94;6283108;28;20083;-84
2023/03/28 13:34:20;;;;;;;3.58;1.35;;;;;;;9.15;90.93;101462.31;6295363;28;20386;-84
2023/03/28 13:37:25;;;;;;;3.83;1.15;;;;;;;9.46;89.47;101466.50;6284427;28;20048;-84
2023/03/28 13:41:08;;;;;;;3.53;1.10;;;;;;;9.41;83.99;101457.34;6271506;28;20052;-84
2023/03/28 13:44:20;;;;;;;3.95;1.52;;;;;;;8.93;89.43;101454.13;6218910;28;20048;-84
2023/03/28 13:47:42;;;;;;;5.80;1.50;;;;;;;8.62;91.60;101455.84;6231959;28;20518;-84
2023/03/28 13:50:46;;;;;;;4.82;1.30;;;;;;;8.52;94.60;101452.13;6229221;28;20483;-84
2023/03/28 13:53:47;;;;;;;5.55;1.40;;;;;;;8.26;100.00;101436.31;6228745;28;20045;-84
2023/03/28 13:56:51;;;;;;;5.00;1.42;;;;;;;8.20;98.20;101442.63;6211096;28;20049;-84
2023/03/28 13:59:57;;;;;;;6.78;2.00;;;;;;;8.34;99.51;101428.13;6213453;28;20242;-84
2023/03/28 14:03:03;;;;;;;4.82;1.30;;;;;;;8.71;98.64;101424.38;6211675;28;20526;-84
2023/03/28 14:06:13;;;;;;;2.67;1.20;;;;;;;9.21;96.36;101425.78;6233078;28;20135;-85
2023/03/28 14:09:29;;;;;;;6.07;1.63;;;;;;;9.81;99.10;101418.78;6227862;28;20111;-84
2023/03/28 14:12:32;;;;;;;4.63;1.27;;;;;;;10.37;92.62;101419.59;6216993;28;20065;-84
2023/03/28 14:15:38;;;;;;;5.15;1.63;;;;;;;10.69;84.14;101419.31;6213221;28;20057;-85
2023/03/28 14:18:44;;;;;;;6.20;1.50;;;;;;;10.68;86.20;101409.84;6209390;28;20542;-84
2023/03/28 14:21:47;;;;;;;3.88;1.35;;;;;;;10.86;88.66;101415.63;6273380;28;20060;-84
2023/03/28 14:24:52;;;;;;;3.45;1.50;;;;;;;10.55;80.18;101409.81;6275437;28;20036;-84
2023/03/28 14:27:55;;;;;;;3.90;1.55;;;;;;;9.92;85.01;101411.19;6291685;28;20068;-84
2023/03/28 14:30:58;;;;;;;3.40;1.40;;;;;;;9.58;96.21;101408.06;6289216;28;20032;-84
2023/03/28 14:34:15;;;;;;;5.88;1.73;;;;;;;9.13;100.00;101402.16;6287402;28;20037;-84
2023/03/28 14:37:17;;;;;;;5.60;1.58;;;;;;;8.91;100.00;101391.41;6277227;28;20090;-84
2023/03/28 14:40:34;;;;;;;8.10;1.63;;;;;;;9.08;100.00;101391.25;6298675;28;20044;-84
2023/03/28 14:43:38;;;;;;;4.15;1.63;;;;;;;9.29;100.00;101391.72;6287563;28;20167;-84
2023/03/28 14:46:41;;;;;;;2.78;1.38;;;;;;;9.23;100.00;101390.34;6284474;28;20036;-84
2023/03/28 14:49:44;;;;;;;5.78;2.17;;;;;;;9.14;100.00;101378.00;6282545;28;20395;-84
2023/03/28 14:52:47;;;;;;;7.63;1.98;;;;;;;9.15;100.00;101382.25;6282624;28;20052;-84
2023/03/28 14:55:52;;;;;;;5.28;1.40;;;;;;;9.33;100.00;101372.56;6285645;28;20044;-84
2023/03/28 14:58:59;;;;;;;6.45;1.58;;;;;;;9.59;100.00;101376.16;6283532;28;20048;-84